Time;durP1;ratioP1;P1;durP2;ratioP2;P2;SDS_P1;SDS_P2;PMS_P1;PMS_P2;Temp;Humidity;BMP_temperature;BMP_pressure;BME280_temperature;BME280_humidity;BME280_pressure;Samples;Min_cycle;Max_cycle;Signal;HPM_P1;HPM_P2
2022/05/19 01:50:33;;;;;;;3.97;1.20;;;;;;;15.02;65.01;95376.28;4791298;29;20051;-96
2022/05/19 01:53:30;;;;;;;2.25;1.27;;;;;;;15.40;67.23;95387.19;4792579;30;20149;-96
2022/05/19 01:56:01;;;;;;;4.15;1.77;;;;;;;14.97;65.20;95388.41;4790153;29;20046;-96
2022/05/19 01:58:34;;;;;;;7.13;1.35;;;;;;;14.65;71.76;95388.78;4791964;30;20043;-96
2022/05/19 02:01:02;;;;;;;4.70;1.70;;;;;;;14.76;79.52;95392.97;4791541;30;20068;-96
2022/05/19 02:04:00;;;;;;;2.17;1.38;;;;;;;14.87;73.40;95399.03;4791947;30;20062;-96
2022/05/19 02:06:27;;;;;;;2.63;1.50;;;;;;;14.90;68.90;95400.31;4792622;30;20039;-96
2022/05/19 02:09:01;;;;;;;4.45;1.17;;;;;;;14.59;70.61;95389.81;4777379;30;20067;-96
2022/05/19 02:11:46;;;;;;;6.82;1.88;;;;;;;14.37;72.69;95385.66;4792245;30;20064;-96
2022/05/19 02:14:16;;;;;;;8.13;1.55;;;;;;;14.47;70.23;95388.25;4776817;30;20039;-96
2022/05/19 02:16:42;;;;;;;3.67;1.40;;;;;;;14.28;73.00;95390.69;4791935;30;20345;-96
2022/05/19 02:19:09;;;;;;;6.75;1.58;;;;;;;14.44;76.93;95388.78;4792029;29;20104;-96
2022/05/19 02:21:35;;;;;;;11.55;2.00;;;;;;;14.20;79.96;95389.38;4791802;30;20035;-96
2022/05/19 02:24:01;;;;;;;2.55;1.30;;;;;;;14.44;78.04;95382.75;4791609;30;20042;-96
2022/05/19 02:26:38;;;;;;;5.63;1.67;;;;;;;14.40;80.91;95377.22;4776451;30;20039;-96
2022/05/19 02:29:10;;;;;;;2.53;1.30;;;;;;;14.57;83.98;95367.16;4791816;30;20418;-96
2022/05/19 02:31:36;;;;;;;7.53;1.70;;;;;;;14.55;79.38;95368.47;4792115;30;20129;-96
2022/05/19 02:34:02;;;;;;;6.28;1.60;;;;;;;14.34;81.17;95373.00;4792252;30;20039;-96
2022/05/19 02:36:28;;;;;;;5.75;1.90;;;;;;;13.71;88.60;95372.22;4791473;30;20031;-96
2022/05/19 02:38:54;;;;;;;2.83;1.45;;;;;;;13.97;85.03;95375.66;4791923;30;20043;-96
2022/05/19 02:41:19;;;;;;;5.72;1.35;;;;;;;14.25;81.32;95367.47;4776927;30;20039;-96
2022/05/19 02:43:45;;;;;;;3.47;1.48;;;;;;;13.86;89.35;95371.44;4791370;30;20031;-96
2022/05/19 02:46:10;;;;;;;3.42;1.48;;;;;;;13.93;100.00;95369.34;4791064;30;20080;-96
2022/05/19 02:48:36;;;;;;;4.68;1.63;;;;;;;14.11;90.68;95369.88;4806318;29;20023;-96
2022/05/19 02:51:03;;;;;;;3.10;1.63;;;;;;;13.59;100.00;95375.09;4791324;30;20092;-96
2022/05/19 02:53:29;;;;;;;3.92;2.00;;;;;;;13.96;93.09;95378.56;4776501;30;20099;-96
2022/05/19 02:55:55;;;;;;;6.15;1.45;;;;;;;14.04;80.50;95382.50;4791318;30;20035;-96
2022/05/19 02:58:20;;;;;;;4.65;1.50;;;;;;;13.77;88.11;95380.91;4791285;30;20054;-96
2022/05/19 03:00:49;;;;;;;3.72;1.52;;;;;;;13.94;84.26;95388.56;4791566;30;20035;-96
2022/05/19 03:03:15;;;;;;;6.10;1.50;;;;;;;13.78;85.66;95387.78;4791456;30;20058;-96
2022/05/19 03:05:41;;;;;;;1.48;1.10;;;;;;;13.82;89.87;95384.34;4790910;30;20413;-96
2022/05/19 03:08:07;;;;;;;2.88;1.50;;;;;;;13.86;87.11;95389.88;4791464;30;20448;-96
2022/05/19 03:10:36;;;;;;;1.80;1.25;;;;;;;14.01;75.21;95389.09;4806999;29;20034;-96
2022/05/19 03:13:02;;;;;;;3.50;1.52;;;;;;;13.92;75.54;95393.31;4791230;30;20031;-96
2022/05/19 03:15:28;;;;;;;4.80;2.03;;;;;;;13.57;80.36;95378.00;4791524;30;20126;-96
2022/05/19 03:17:53;;;;;;;3.72;1.42;;;;;;;13.71;72.42;95388.81;4790934;30;20130;-96
2022/05/19 03:20:20;;;;;;;5.95;1.40;;;;;;;14.01;63.26;95386.47;4790826;30;20046;-96
2022/05/19 03:26:07;;;;;;;3.22;1.30;;;;;;;14.19;71.55;95397.53;4791975;30;20053;-96
2022/05/19 03:28:33;;;;;;;2.90;1.13;;;;;;;14.30;61.88;95400.94;4776613;30;20027;-96
2022/05/19 03:31:01;;;;;;;2.22;1.25;;;;;;;13.65;73.82;95395.13;4792338;29;20125;-96
2022/05/19 03:33:27;;;;;;;3.63;1.30;;;;;;;13.78;60.42;95395.69;4779553;30;20349;-96
2022/05/19 03:35:57;;;;;;;4.50;1.30;;;;;;;13.91;59.16;95400.41;4794476;30;20068;-96
2022/05/19 03:38:22;;;;;;;4.25;1.38;;;;;;;14.05;57.17;95403.31;4779540;30;20023;-96
2022/05/19 03:40:48;;;;;;;2.10;1.23;;;;;;;13.71;65.88;95393.31;4809408;29;20031;-96
2022/05/19 03:43:14;;;;;;;3.13;1.23;;;;;;;13.90;58.53;95408.59;4809797;29;20031;-96
2022/05/19 03:45:39;;;;;;;2.67;0.93;;;;;;;13.97;58.49;95407.28;4797102;30;20118;-96
2022/05/19 03:48:05;;;;;;;3.35;1.30;;;;;;;14.15;59.77;95402.53;4795384;29;20031;-96
2022/05/19 03:50:31;;;;;;;4.03;1.25;;;;;;;14.20;60.06;95402.56;4796996;30;20027;-96
2022/05/19 03:52:57;;;;;;;3.45;0.98;;;;;;;14.29;58.38;95408.06;4796920;30;20027;-96
2022/05/19 03:55:22;;;;;;;2.53;1.20;;;;;;;13.45;68.49;95403.78;4795679;30;20129;-96
2022/05/19 03:57:48;;;;;;;4.88;1.25;;;;;;;13.57;60.19;95412.25;4795147;30;20058;-96
2022/05/19 04:00:14;;;;;;;2.85;1.20;;;;;;;13.85;65.32;95412.00;4794906;30;20043;-96
2022/05/19 04:06:01;;;;;;;3.75;1.60;;;;;;;13.85;72.98;95410.19;4794312;30;20130;-95
2022/05/19 04:11:49;;;;;;;5.22;1.33;;;;;;;13.66;77.20;95417.78;4794268;30;20088;-95
2022/05/19 04:14:15;;;;;;;2.17;1.23;;;;;;;13.47;77.92;95408.75;4793152;30;20035;-95
2022/05/19 04:16:40;;;;;;;5.20;1.30;;;;;;;13.07;94.62;95409.16;4794353;30;20077;-95
2022/05/19 04:22:28;;;;;;;3.75;1.20;;;;;;;13.13;74.03;95409.97;4794060;30;20096;-96
2022/05/19 04:24:53;;;;;;;3.45;1.30;;;;;;;12.87;99.00;95426.41;4808410;29;20035;-95
2022/05/19 04:27:19;;;;;;;2.88;1.10;;;;;;;13.14;78.03;95414.97;4794230;30;20062;-95
2022/05/19 04:29:44;;;;;;;2.92;1.55;;;;;;;13.18;100.00;95424.97;4794181;30;20171;-95
2022/05/19 04:32:10;;;;;;;2.05;1.20;;;;;;;13.59;93.04;95422.50;4778144;30;20042;-96
2022/05/19 04:34:35;;;;;;;6.50;1.55;;;;;;;13.85;88.18;95422.53;4793992;30;20035;-95
2022/05/19 04:37:01;;;;;;;3.80;1.33;;;;;;;13.47;81.57;95432.47;4794046;30;20449;-95
2022/05/19 04:39:26;;;;;;;4.70;1.40;;;;;;;13.64;78.81;95429.63;4794325;30;20434;-95
2022/05/19 04:41:52;;;;;;;3.33;1.42;;;;;;;13.98;72.78;95435.19;4795056;29;20042;-95
2022/05/19 04:44:18;;;;;;;6.97;1.20;;;;;;;13.75;90.44;95430.41;4794010;30;20035;-95
2022/05/19 04:46:46;;;;;;;5.90;1.20;;;;;;;13.53;84.46;95444.59;4794838;30;20031;-96
2022/05/19 04:49:12;;;;;;;5.60;1.65;;;;;;;13.54;89.73;95440.91;4795250;29;20042;-95
2022/05/19 04:51:37;;;;;;;2.72;1.33;;;;;;;13.74;98.17;95445.44;4793824;30;20061;-94
2022/05/19 04:54:03;;;;;;;5.88;1.50;;;;;;;14.13;87.69;95446.81;4793271;30;20122;-94
2022/05/19 04:56:30;;;;;;;2.88;1.38;;;;;;;13.94;94.46;95444.69;4793595;30;20070;-96
2022/05/19 04:58:56;;;;;;;4.07;1.17;;;;;;;14.22;79.33;95447.06;4793653;30;20361;-95
2022/05/19 05:01:21;;;;;;;6.32;1.40;;;;;;;14.08;100.00;95454.72;4792527;30;20361;-94
2022/05/19 05:03:47;;;;;;;6.22;1.50;;;;;;;13.84;100.00;95461.28;4793184;30;20035;-95
2022/05/19 05:06:12;;;;;;;2.05;1.33;;;;;;;13.97;100.00;95467.06;4793153;30;20035;-95
2022/05/19 05:08:38;;;;;;;4.43;1.50;;;;;;;14.24;100.00;95464.22;4793234;30;20073;-96
2022/05/19 05:11:03;;;;;;;2.58;1.55;;;;;;;14.05;98.32;95471.84;4793221;30;20092;-95
2022/05/19 05:13:29;;;;;;;2.13;1.33;;;;;;;13.99;100.00;95473.66;4807483;29;20039;-94
2022/05/19 05:15:55;;;;;;;5.25;1.45;;;;;;;14.36;97.12;95473.72;4807720;29;20085;-95
2022/05/19 05:18:20;;;;;;;3.90;1.58;;;;;;;14.21;100.00;95472.66;4793509;30;20031;-95
2022/05/19 05:20:45;;;;;;;5.18;1.55;;;;;;;14.15;100.00;95478.97;4793180;30;20042;-93
2022/05/19 05:23:11;;;;;;;2.28;1.23;;;;;;;14.44;100.00;95481.06;4791487;30;20038;-94
2022/05/19 05:25:36;;;;;;;5.55;1.33;;;;;;;14.39;100.00;95491.63;4791750;30;20164;-94
2022/05/19 05:28:03;;;;;;;3.05;1.65;;;;;;;14.47;100.00;95488.44;4791588;30;20027;-93
2022/05/19 05:30:29;;;;;;;5.43;1.70;;;;;;;14.51;100.00;95488.72;4791503;30;20433;-93
2022/05/19 05:32:55;;;;;;;3.47;1.52;;;;;;;15.00;100.00;95490.03;4792544;30;20038;-93
2022/05/19 05:35:20;;;;;;;3.88;1.45;;;;;;;15.40;100.00;95493.59;4792427;30;20035;-93
2022/05/19 05:37:46;;;;;;;8.30;1.50;;;;;;;15.28;100.00;95485.19;4791550;30;20031;-94
2022/05/19 05:40:12;;;;;;;3.17;1.40;;;;;;;15.52;72.95;95484.59;4791412;30;20403;-94
2022/05/19 05:42:38;;;;;;;5.53;1.25;;;;;;;15.51;97.00;95494.34;4776588;30;20084;-94
2022/05/19 05:45:05;;;;;;;1.90;1.02;;;;;;;16.11;98.45;95488.25;4792294;30;20038;-93
2022/05/19 05:47:30;;;;;;;2.67;1.30;;;;;;;16.48;93.17;95498.56;4791127;30;20126;-93
2022/05/19 05:49:56;;;;;;;2.90;1.25;;;;;;;16.80;84.27;95500.69;4792196;29;20122;-94
2022/05/19 05:52:22;;;;;;;4.63;1.30;;;;;;;16.82;96.22;95509.13;4791133;30;20031;-94
2022/05/19 05:54:47;;;;;;;2.88;1.38;;;;;;;17.13;80.47;95513.34;4790746;29;20034;-94
2022/05/19 05:57:14;;;;;;;2.92;1.60;;;;;;;17.38;77.23;95503.56;4806098;29;20054;-94
2022/05/19 05:59:41;;;;;;;3.75;1.35;;;;;;;17.45;78.89;95511.16;4791187;30;20039;-94
2022/05/19 06:02:06;;;;;;;2.35;1.30;;;;;;;17.72;78.09;95510.59;4792157;30;20122;-94
2022/05/19 06:04:32;;;;;;;3.70;1.30;;;;;;;17.85;78.67;95506.44;4791084;30;20122;-94
2022/05/19 06:06:57;;;;;;;4.95;1.48;;;;;;;17.69;87.82;95508.50;4792520;30;20080;-94
2022/05/19 06:09:22;;;;;;;7.70;1.50;;;;;;;16.98;100.00;95516.13;4805938;29;20031;-94
2022/05/19 06:11:48;;;;;;;4.25;1.80;;;;;;;16.98;100.00;95516.94;4792431;30;20065;-94
2022/05/19 06:14:13;;;;;;;2.58;1.35;;;;;;;17.79;100.00;95515.56;4776200;30;20127;-93
2022/05/19 06:16:39;;;;;;;3.97;1.83;;;;;;;18.00;99.56;95513.38;4790956;30;20039;-94
2022/05/19 06:19:05;;;;;;;5.97;1.33;;;;;;;18.26;100.00;95505.09;4791071;30;20061;-94
2022/05/19 06:21:30;;;;;;;6.25;1.50;;;;;;;18.10;99.08;95515.16;4791095;30;20027;-94
2022/05/19 06:23:56;;;;;;;4.10;1.58;;;;;;;18.33;97.03;95507.38;4790962;30;20509;-94
2022/05/19 06:26:21;;;;;;;2.20;1.30;;;;;;;18.32;97.22;95508.47;4776230;30;20027;-95
2022/05/19 06:28:47;;;;;;;1.70;1.20;;;;;;;18.51;95.66;95516.41;4791015;30;20031;-94
2022/05/19 06:31:13;;;;;;;2.97;1.55;;;;;;;18.03;100.00;95514.72;4792078;30;20059;-94
2022/05/19 06:33:38;;;;;;;6.32;1.35;;;;;;;18.31;99.99;95515.66;4790822;30;20118;-94
2022/05/19 06:36:05;;;;;;;2.72;1.40;;;;;;;18.02;85.96;95523.72;4791743;30;20035;-94
2022/05/19 06:38:31;;;;;;;2.78;1.50;;;;;;;18.33;98.78;95523.31;4790746;30;20168;-95
2022/05/19 06:42:00;;;;;;;3.78;1.40;;;;;;;18.57;100.00;95519.78;4791831;30;20129;-94
2022/05/19 06:43:46;;;;;;;4.15;1.48;;;;;;;18.44;100.00;95523.97;4791845;30;20039;-95
2022/05/19 06:46:12;;;;;;;5.78;2.20;;;;;;;17.77;100.00;95525.63;4791934;30;20035;-94
2022/05/19 06:48:38;;;;;;;6.88;1.40;;;;;;;18.60;95.44;95521.84;4790703;30;20052;-95
2022/05/19 06:51:03;;;;;;;3.45;1.50;;;;;;;19.48;100.00;95526.44;4790651;30;20046;-93
2022/05/19 06:53:29;;;;;;;5.53;1.80;;;;;;;19.39;100.00;95527.44;4805691;29;20043;-95
2022/05/19 06:55:54;;;;;;;5.63;1.23;;;;;;;18.77;100.00;95523.97;4791853;30;20039;-94
2022/05/19 06:58:20;;;;;;;3.65;1.30;;;;;;;18.90;74.17;95525.88;4776130;30;20137;-94
2022/05/19 07:00:45;;;;;;;2.05;1.30;;;;;;;19.62;100.00;95530.97;4790559;30;20047;-96
2022/05/19 07:03:11;;;;;;;2.95;1.40;;;;;;;20.16;73.29;95530.44;4791830;30;20061;-94
2022/05/19 07:05:38;;;;;;;3.85;1.70;;;;;;;19.05;100.00;95530.13;4791680;29;20059;-94
2022/05/19 07:08:04;;;;;;;2.80;1.40;;;;;;;20.29;68.20;95531.47;4809220;29;20105;-94
2022/05/19 07:10:30;;;;;;;2.60;1.50;;;;;;;20.41;83.70;95534.38;4794381;30;20426;-94
2022/05/19 07:12:56;;;;;;;2.13;1.55;;;;;;;19.09;77.86;95534.88;4794563;30;20039;-95
2022/05/19 07:15:22;;;;;;;5.50;1.45;;;;;;;18.91;100.00;95537.25;4794035;30;20043;-94
2022/05/19 07:17:47;;;;;;;3.38;1.85;;;;;;;20.14;76.21;95548.53;4794017;30;20107;-94
2022/05/19 07:22:58;;;;;;;3.22;1.45;;;;;;;20.51;77.88;95540.53;4795057;30;20038;-94
2022/05/19 07:25:24;;;;;;;4.72;1.25;;;;;;;21.16;70.97;95546.47;4794292;30;20375;-94
2022/05/19 07:27:49;;;;;;;4.95;2.10;;;;;;;20.95;71.16;95544.34;4793798;30;20043;-95
2022/05/19 07:30:15;;;;;;;4.90;1.50;;;;;;;21.05;62.00;95538.72;4794989;30;20061;-94
2022/05/19 07:32:41;;;;;;;5.65;1.50;;;;;;;20.80;64.82;95539.31;4793672;30;20125;-95
2022/05/19 07:35:09;;;;;;;2.60;1.05;;;;;;;20.87;57.84;95534.41;4793582;30;20179;-95
2022/05/19 07:37:35;;;;;;;2.67;1.58;;;;;;;20.54;60.90;95537.31;4793775;30;20122;-94
2022/05/19 07:40:01;;;;;;;3.15;1.65;;;;;;;20.57;60.92;95537.47;4808833;29;20055;-94
2022/05/19 07:45:48;;;;;;;4.10;1.50;;;;;;;20.82;66.37;95537.19;4794729;30;20072;-95
2022/05/19 07:48:13;;;;;;;7.57;1.52;;;;;;;21.49;60.14;95542.69;4794563;29;20358;-94
2022/05/19 07:50:39;;;;;;;3.47;1.88;;;;;;;21.79;56.58;95546.41;4793476;30;20092;-94
2022/05/19 07:53:04;;;;;;;4.30;1.50;;;;;;;21.52;57.10;95542.88;4778774;30;20031;-94
2022/05/19 07:55:31;;;;;;;5.43;1.58;;;;;;;21.51;55.90;95545.84;4793551;30;20063;-94
2022/05/19 07:57:56;;;;;;;5.55;1.52;;;;;;;21.46;54.46;95538.75;4809581;29;20122;-94
2022/05/19 08:00:22;;;;;;;13.25;1.55;;;;;;;20.80;53.99;95550.78;4794417;30;20063;-94
2022/05/19 08:02:47;;;;;;;3.03;1.63;;;;;;;20.89;56.63;95548.19;4794388;30;20035;-94
2022/05/19 08:05:13;;;;;;;8.80;1.50;;;;;;;20.73;64.25;95545.88;4793268;30;20058;-95
2022/05/19 08:07:38;;;;;;;4.18;1.50;;;;;;;20.86;60.76;95549.59;4793338;30;20038;-95
2022/05/19 08:15:35;;;;;;;7.82;1.65;;;;;;;20.95;58.09;95552.31;4806369;29;20042;-94
2022/05/19 08:18:03;;;;;;;6.38;1.80;;;;;;;21.00;59.02;95554.06;4807183;29;20457;-95
2022/05/19 08:20:29;;;;;;;3.42;1.65;;;;;;;20.58;59.02;95546.25;4808196;29;20111;-96
2022/05/19 08:22:55;;;;;;;6.93;1.55;;;;;;;20.82;65.35;95553.94;4793507;30;20035;-95
2022/05/19 08:25:24;;;;;;;7.78;1.58;;;;;;;20.62;58.30;95548.00;4792912;30;20035;-94
2022/05/19 08:27:50;;;;;;;4.10;1.30;;;;;;;20.66;63.94;95550.84;4793156;30;20035;-94
2022/05/19 08:30:15;;;;;;;6.93;1.75;;;;;;;20.88;58.12;95549.28;4793122;30;20357;-96
2022/05/19 08:32:42;;;;;;;5.30;1.50;;;;;;;21.16;62.57;95544.59;4807870;29;20031;-94
2022/05/19 08:35:08;;;;;;;4.75;1.60;;;;;;;21.11;57.20;95544.72;4792556;30;20032;-95
2022/05/19 08:37:34;;;;;;;9.80;1.63;;;;;;;21.10;58.59;95550.38;4807875;29;20031;-95
2022/05/19 08:39:59;;;;;;;4.57;1.67;;;;;;;20.99;60.51;95547.94;4793429;30;20050;-94
2022/05/19 08:42:27;;;;;;;4.68;1.55;;;;;;;20.82;64.18;95548.63;4792860;30;20042;-95
2022/05/19 08:44:54;;;;;;;9.55;1.88;;;;;;;21.02;59.51;95551.91;4792749;29;20046;-95
2022/05/19 08:47:24;;;;;;;5.93;1.67;;;;;;;20.67;57.93;95547.09;4808160;29;20446;-94
2022/05/19 08:50:03;;;;;;;3.53;1.50;;;;;;;20.49;56.56;95546.97;4793416;29;20050;-95
2022/05/19 08:55:55;;;;;;;6.50;1.80;;;;;;;21.02;57.58;95543.91;4793682;30;20082;-94
2022/05/19 09:05:17;;;;;;;2.45;1.45;;;;;;;21.25;56.92;95560.63;4793511;30;20460;-95
2022/05/19 09:11:15;;;;;;;6.15;1.70;;;;;;;20.89;57.35;95553.53;4793284;30;20037;-95
2022/05/19 09:13:58;;;;;;;5.65;1.70;;;;;;;21.21;55.02;95553.56;4777927;30;20035;-95
2022/05/19 09:16:24;;;;;;;;;;;;;;;21.36;58.49;95549.69;4793848;30;20035;-95
2022/05/19 09:18:55;;;;;;;7.75;1.60;;;;;;;21.68;56.53;95545.91;4807003;29;19917;-95
2022/05/19 09:21:21;;;;;;;6.22;1.48;;;;;;;21.64;58.49;95550.28;4791906;30;20445;-95
2022/05/19 09:23:47;;;;;;;4.22;1.83;;;;;;;21.83;57.13;95558.03;4792038;30;20039;-95
2022/05/19 09:26:46;;;;;;;6.47;1.73;;;;;;;21.79;60.88;95549.06;4792364;30;20035;-95
2022/05/19 09:29:16;;;;;;;8.13;1.67;;;;;;;21.76;60.02;95552.38;4776125;30;20027;-94
2022/05/19 09:31:47;;;;;;;4.78;1.90;;;;;;;22.05;59.34;95556.34;4776852;30;20035;-95
2022/05/19 09:34:13;;;;;;;3.08;1.77;;;;;;;21.97;60.69;95557.91;4806782;29;20055;-94
2022/05/19 09:36:48;;;;;;;4.45;1.90;;;;;;;22.22;61.98;95557.47;4792047;30;20149;-92
2022/05/19 09:39:15;;;;;;;3.45;2.08;;;;;;;21.41;56.11;95546.91;4792313;30;20039;-95
2022/05/19 09:41:45;;;;;;;5.50;1.50;;;;;;;21.29;64.05;95542.94;4793705;30;20068;-95
2022/05/19 09:44:16;;;;;;;4.47;1.65;;;;;;;21.87;61.76;95537.66;4807403;29;20342;-95
2022/05/19 09:46:44;;;;;;;7.13;1.80;;;;;;;21.83;64.13;95542.03;4806709;29;20118;-95
2022/05/19 09:49:31;;;;;;;9.93;2.13;;;;;;;22.35;63.83;95537.84;4806869;29;20047;-95
2022/05/19 09:52:05;;;;;;;3.58;1.85;;;;;;;22.22;59.44;95538.78;4806451;29;20052;-95
2022/05/19 09:54:32;;;;;;;5.03;1.80;;;;;;;22.56;66.86;95546.03;4807583;29;20059;-95
2022/05/19 09:57:23;;;;;;;3.95;1.88;;;;;;;22.67;67.69;95530.50;4807406;29;20043;-94
2022/05/19 09:59:51;;;;;;;2.25;1.50;;;;;;;22.90;63.99;95529.50;4806416;29;20039;-94
2022/05/19 10:02:31;;;;;;;4.90;1.88;;;;;;;22.26;61.69;95531.72;4791563;30;20038;-95
2022/05/19 10:05:00;;;;;;;5.07;1.92;;;;;;;22.79;66.76;95524.50;4791394;30;20051;-95
2022/05/19 10:07:47;;;;;;;3.25;1.85;;;;;;;22.77;66.83;95526.69;4791911;30;20031;-95
2022/05/19 10:10:20;;;;;;;5.40;1.80;;;;;;;22.98;61.03;95521.47;4805940;29;20042;-95
2022/05/19 10:12:48;;;;;;;4.78;1.90;;;;;;;23.11;61.11;95529.59;4807160;29;20031;-95
2022/05/19 10:15:16;;;;;;;8.95;2.00;;;;;;;22.91;62.25;95523.06;4792703;30;20039;-94
2022/05/19 10:17:55;;;;;;;7.05;1.92;;;;;;;22.90;57.35;95522.25;4790827;29;20139;-95
2022/05/19 10:20:22;;;;;;;6.10;1.85;;;;;;;22.92;64.63;95527.28;4791351;30;20411;-95
2022/05/19 10:23:10;;;;;;;4.88;1.70;;;;;;;22.58;58.78;95530.47;4776102;30;20046;-95
2022/05/19 10:26:00;;;;;;;6.97;1.88;;;;;;;22.56;60.13;95522.00;4791105;30;20035;-95
2022/05/19 10:32:01;;;;;;;6.63;2.30;;;;;;;22.42;60.13;95524.81;4792133;30;20453;-94
2022/05/19 10:34:37;;;;;;;3.13;1.95;;;;;;;23.04;68.49;95522.09;4790973;30;20079;-95
2022/05/19 10:37:25;;;;;;;6.47;2.05;;;;;;;22.94;69.97;95517.84;4791718;30;20133;-96
2022/05/19 10:39:50;;;;;;;7.35;2.08;;;;;;;22.93;60.66;95518.94;4790675;30;20081;-94
2022/05/19 10:45:39;;;;;;;7.28;2.08;;;;;;;22.91;59.80;95512.38;4791689;30;20394;-95
2022/05/19 10:48:38;;;;;;;5.85;2.17;;;;;;;22.80;62.94;95496.66;4805898;29;20457;-96
2022/05/19 10:51:16;;;;;;;6.15;2.05;;;;;;;22.84;65.32;95502.16;4791536;30;20059;-96
2022/05/19 10:53:51;;;;;;;4.05;1.60;;;;;;;23.00;65.07;95499.75;4805878;29;20473;-96
2022/05/19 10:56:52;;;;;;;9.05;1.90;;;;;;;23.00;63.09;95502.41;4805880;29;20039;-95
2022/05/19 10:59:43;;;;;;;12.27;2.33;;;;;;;23.20;59.24;95503.63;4776615;30;20035;-95
2022/05/19 11:02:08;;;;;;;5.68;2.08;;;;;;;23.57;60.26;95500.47;4792456;30;20124;-96
2022/05/19 11:05:12;;;;;;;5.25;2.13;;;;;;;23.50;61.31;95498.31;4791179;30;20388;-95
2022/05/19 11:07:41;;;;;;;;;;;;;;;23.93;58.03;95496.50;4790985;30;20035;-96
2022/05/19 11:10:27;;;;;;;4.20;2.08;;;;;;;23.80;57.18;95495.63;4805589;29;20280;-95
2022/05/19 11:13:15;;;;;;;3.17;1.80;;;;;;;23.43;65.24;95487.34;4775972;30;20057;-95
2022/05/19 11:15:44;;;;;;;7.20;1.98;;;;;;;23.78;63.36;95489.81;4790552;30;20074;-95
2022/05/19 11:18:20;;;;;;;6.03;1.88;;;;;;;23.37;75.96;95485.94;4790765;30;20039;-96
2022/05/19 11:21:23;;;;;;;6.57;1.83;;;;;;;23.32;64.21;95486.16;4790851;30;20035;-95
2022/05/19 11:23:50;;;;;;;10.27;2.15;;;;;;;22.93;62.38;95486.88;4775949;30;20038;-96
2022/05/19 11:26:26;;;;;;;2.25;1.55;;;;;;;23.89;73.50;95476.06;4775883;30;20093;-96
2022/05/19 11:29:32;;;;;;;4.72;1.83;;;;;;;23.85;71.80;95479.41;4776248;30;20027;-96
2022/05/19 11:32:07;;;;;;;5.05;2.30;;;;;;;23.56;66.71;95481.00;4775791;30;20031;-96
2022/05/19 11:34:48;;;;;;;2.30;1.73;;;;;;;23.71;68.18;95478.88;4790710;30;20319;-95
2022/05/19 11:37:37;;;;;;;8.55;2.00;;;;;;;23.45;65.39;95471.75;4790227;30;20042;-95
2022/05/19 11:40:12;;;;;;;3.22;1.80;;;;;;;24.14;70.17;95474.31;4790546;30;20039;-95
2022/05/19 11:43:06;;;;;;;4.10;1.88;;;;;;;23.64;66.22;95471.34;4791551;30;20113;-95
2022/05/19 11:45:51;;;;;;;6.18;1.92;;;;;;;23.79;70.23;95464.63;4790522;30;20092;-96
2022/05/19 11:57:34;;;;;;;;;;;;;;;24.26;69.18;95463.66;4794619;30;20091;-95
2022/05/19 12:00:01;;;;;;;6.18;2.30;;;;;;;23.65;68.39;95469.44;4778406;30;19917;-94
2022/05/19 12:03:06;;;;;;;7.20;1.75;;;;;;;23.52;69.45;95461.31;4778754;30;20042;-94
2022/05/19 12:05:55;;;;;;;6.55;1.73;;;;;;;23.50;66.83;95468.13;4793254;30;20042;-95
2022/05/19 12:08:50;;;;;;;6.03;2.00;;;;;;;23.43;69.60;95466.72;4778515;30;20042;-94
2022/05/19 12:11:29;;;;;;;7.03;1.98;;;;;;;23.62;70.56;95465.53;4792959;30;20034;-95
2022/05/19 12:14:24;;;;;;;8.25;2.22;;;;;;;23.48;68.54;95454.31;4808408;29;20038;-94
2022/05/19 12:16:56;;;;;;;4.82;2.10;;;;;;;23.64;68.58;95457.19;4793385;30;20034;-94
2022/05/19 12:19:41;;;;;;;11.70;1.88;;;;;;;23.68;70.90;95458.13;4778813;30;20031;-96
2022/05/19 12:22:17;;;;;;;5.38;2.20;;;;;;;23.68;70.05;95458.88;4807917;29;20032;-93
2022/05/19 12:25:21;;;;;;;5.05;1.70;;;;;;;24.32;77.02;95455.41;4794029;30;20319;-94
2022/05/19 12:27:52;;;;;;;4.03;1.83;;;;;;;24.13;69.00;95452.13;4794382;30;20027;-95
2022/05/19 12:36:38;;;;;;;6.68;2.00;;;;;;;23.91;69.21;95455.09;4795751;30;20034;-95
2022/05/19 12:39:26;;;;;;;4.72;2.00;;;;;;;24.39;87.18;95453.81;4795237;30;20035;-93
2022/05/19 12:41:55;;;;;;;3.47;2.08;;;;;;;24.12;71.68;95452.44;4794400;30;20096;-95
2022/05/19 12:44:35;;;;;;;5.80;2.08;;;;;;;23.95;67.80;95450.66;4794311;29;20071;-95
2022/05/19 12:47:16;;;;;;;10.25;1.83;;;;;;;24.37;66.83;95453.31;4794199;30;20054;-96
2022/05/19 12:50:00;;;;;;;7.05;2.10;;;;;;;24.25;67.32;95448.72;4795586;29;20098;-94
2022/05/19 12:53:05;;;;;;;7.50;2.05;;;;;;;25.12;67.90;95454.28;4795373;29;20059;-95
2022/05/19 12:55:37;;;;;;;10.07;1.92;;;;;;;24.91;67.65;95450.94;4794244;29;20027;-96
2022/05/19 12:58:31;;;;;;;8.27;2.03;;;;;;;23.97;65.19;95451.91;4796414;30;20472;-95
2022/05/19 13:00:56;;;;;;;;;;;;;;;24.13;66.86;95446.00;4797969;29;20031;-95
2022/05/19 13:03:25;;;;;;;7.75;2.05;;;;;;;24.18;66.15;95445.00;4795211;29;19936;-95
2022/05/19 13:06:00;;;;;;;7.93;2.00;;;;;;;24.13;64.82;95441.44;4796627;30;20099;-96
2022/05/19 13:08:32;;;;;;;5.22;2.33;;;;;;;24.19;63.98;95444.69;4797018;29;20023;-96
2022/05/19 13:11:04;;;;;;;7.55;1.95;;;;;;;24.01;65.20;95441.34;4798986;29;20087;-96
2022/05/19 13:13:38;;;;;;;4.45;2.33;;;;;;;24.19;64.23;95435.88;4797005;30;20093;-96
2022/05/19 13:16:30;;;;;;;8.75;2.00;;;;;;;24.42;66.35;95431.72;4796717;29;20042;-96
2022/05/19 13:19:14;;;;;;;4.90;2.10;;;;;;;23.99;65.87;95427.50;4813581;29;20092;-94
2022/05/19 13:22:04;;;;;;;7.65;2.38;;;;;;;24.45;65.71;95427.56;4796050;30;20038;-96
2022/05/19 13:24:34;;;;;;;3.75;2.10;;;;;;;24.74;64.88;95431.22;4811514;29;20108;-94
2022/05/19 13:36:05;;;;;;;5.03;2.28;;;;;;;25.29;58.91;95424.91;4794142;30;20033;-95
2022/05/19 13:38:31;;;;;;;7.13;1.98;;;;;;;25.73;60.14;95427.00;4794301;29;20031;-95
2022/05/19 13:40:57;;;;;;;9.05;2.00;;;;;;;25.70;60.67;95431.16;4793804;29;20345;-95
2022/05/19 13:43:24;;;;;;;6.18;2.08;;;;;;;25.57;62.33;95432.28;4808876;29;20062;-94
2022/05/19 13:45:53;;;;;;;6.10;1.90;;;;;;;26.54;61.19;95428.84;4806778;29;20031;-94
2022/05/19 13:48:44;;;;;;;6.05;2.13;;;;;;;26.07;57.86;95428.34;4794663;29;20034;-96
2022/05/19 13:51:33;;;;;;;9.05;1.80;;;;;;;25.78;58.58;95418.72;4794735;29;20039;-94
2022/05/19 13:54:04;;;;;;;6.88;1.88;;;;;;;26.53;57.52;95411.16;4778286;30;20345;-94
2022/05/19 13:56:43;;;;;;;5.95;1.50;;;;;;;27.17;54.34;95419.25;4792972;29;20540;-94
2022/05/19 13:59:11;;;;;;;3.80;1.88;;;;;;;26.47;54.40;95423.28;4793015;29;20039;-96
2022/05/19 14:01:41;;;;;;;5.25;1.67;;;;;;;26.91;54.80;95417.88;4792287;30;20096;-96
2022/05/19 14:04:09;;;;;;;7.38;1.88;;;;;;;26.83;58.68;95418.81;4791992;30;20037;-95
2022/05/19 14:06:37;;;;;;;5.57;1.60;;;;;;;27.62;52.75;95419.09;4806226;29;20438;-95
2022/05/19 14:09:05;;;;;;;3.15;1.55;;;;;;;27.90;56.98;95413.56;4807528;29;20031;-95
2022/05/19 14:11:31;;;;;;;7.07;2.05;;;;;;;27.95;54.73;95407.06;4792737;29;20035;-95
2022/05/19 14:13:58;;;;;;;4.28;1.73;;;;;;;27.49;52.00;95405.75;4792746;29;20174;-92
2022/05/19 14:16:29;;;;;;;4.30;1.70;;;;;;;27.16;51.94;95404.25;4807490;29;20039;-92
2022/05/19 14:19:15;;;;;;;4.05;1.90;;;;;;;30.28;47.42;95406.06;4807508;29;20103;-96
2022/05/19 14:21:40;;;;;;;4.22;1.48;;;;;;;31.05;47.13;95402.91;4804345;29;20047;-95
2022/05/19 14:24:10;;;;;;;2.90;1.50;;;;;;;31.26;45.03;95405.00;4806122;29;20434;-94
2022/05/19 14:26:59;;;;;;;3.80;1.65;;;;;;;30.67;45.36;95403.00;4796291;29;20526;-95
2022/05/19 14:29:29;;;;;;;4.95;1.80;;;;;;;30.54;44.49;95399.75;4809345;29;20081;-95
2022/05/19 14:32:23;;;;;;;2.92;1.48;;;;;;;29.54;44.86;95395.53;4804538;29;20028;-93
2022/05/19 14:34:49;;;;;;;5.13;1.75;;;;;;;29.51;46.17;95398.97;4805671;29;20192;-94
2022/05/19 14:37:19;;;;;;;6.43;1.60;;;;;;;30.08;44.77;95400.84;4775343;30;20099;-94
2022/05/19 14:43:04;;;;;;;4.47;1.60;;;;;;;31.86;42.20;95392.19;4776061;30;20031;-93
2022/05/19 14:43:04;;;;;;;3.05;1.75;;;;;;;30.12;46.99;95398.16;4786030;29;20036;-94
2022/05/19 14:45:33;;;;;;;7.70;2.00;;;;;;;29.52;46.61;95388.91;4776206;30;20453;-96
2022/05/19 14:47:59;;;;;;;5.63;1.60;;;;;;;28.60;47.84;95384.06;4790968;29;20031;-95
2022/05/19 14:50:29;;;;;;;3.42;2.00;;;;;;;29.11;46.24;95397.59;4807567;29;20091;-95
2022/05/19 14:53:00;;;;;;;2.75;1.75;;;;;;;32.05;43.08;95384.13;4774522;30;20031;-94